sensor_id;sensor_type;location;lat;lon;timestamp;P1;durP1;ratioP1;P2;durP2;ratioP2
6663;SDS011;58749;48.022;10.922;2022-12-10T00:01:26;40.20;;;20.10;;
6663;SDS011;58749;48.022;10.922;2022-12-10T00:03:55;41.70;;;20.63;;
6663;SDS011;58749;48.022;10.922;2022-12-10T00:06:24;39.03;;;18.33;;
6663;SDS011;58749;48.022;10.922;2022-12-10T00:08:54;36.70;;;19.10;;
6663;SDS011;58749;48.022;10.922;2022-12-10T00:11:22;37.58;;;18.13;;
6663;SDS011;58749;48.022;10.922;2022-12-10T00:13:51;37.28;;;19.48;;
6663;SDS011;58749;48.022;10.922;2022-12-10T00:16:22;40.65;;;20.17;;
6663;SDS011;58749;48.022;10.922;2022-12-10T00:18:52;36.65;;;19.58;;
6663;SDS011;58749;48.022;10.922;2022-12-10T00:21:21;33.92;;;18.48;;
6663;SDS011;58749;48.022;10.922;2022-12-10T00:23:51;38.53;;;18.88;;
6663;SDS011;58749;48.022;10.922;2022-12-10T00:26:19;38.30;;;19.75;;
6663;SDS011;58749;48.022;10.922;2022-12-10T00:28:49;38.40;;;18.90;;
6663;SDS011;58749;48.022;10.922;2022-12-10T00:31:18;47.63;;;21.13;;
6663;SDS011;58749;48.022;10.922;2022-12-10T00:33:49;44.28;;;20.42;;
6663;SDS011;58749;48.022;10.922;2022-12-10T00:36:19;36.35;;;19.98;;
6663;SDS011;58749;48.022;10.922;2022-12-10T00:38:49;45.33;;;20.17;;
6663;SDS011;58749;48.022;10.922;2022-12-10T00:41:17;49.17;;;22.10;;
6663;SDS011;58749;48.022;10.922;2022-12-10T00:43:46;43.53;;;21.48;;
6663;SDS011;58749;48.022;10.922;2022-12-10T00:46:15;41.42;;;19.20;;
6663;SDS011;58749;48.022;10.922;2022-12-10T00:48:45;46.38;;;21.02;;
6663;SDS011;58749;48.022;10.922;2022-12-10T00:51:15;42.35;;;19.90;;
6663;SDS011;58749;48.022;10.922;2022-12-10T00:53:45;47.38;;;21.27;;
6663;SDS011;58749;48.022;10.922;2022-12-10T00:56:15;44.40;;;21.30;;
6663;SDS011;58749;48.022;10.922;2022-12-10T00:58:44;37.50;;;18.38;;
6663;SDS011;58749;48.022;10.922;2022-12-10T01:01:15;43.55;;;20.58;;
6663;SDS011;58749;48.022;10.922;2022-12-10T01:03:44;43.33;;;21.13;;
6663;SDS011;58749;48.022;10.922;2022-12-10T01:06:16;51.47;;;22.58;;
6663;SDS011;58749;48.022;10.922;2022-12-10T01:08:45;48.40;;;20.67;;
6663;SDS011;58749;48.022;10.922;2022-12-10T01:11:15;53.47;;;22.63;;
6663;SDS011;58749;48.022;10.922;2022-12-10T01:13:45;51.17;;;22.55;;
6663;SDS011;58749;48.022;10.922;2022-12-10T01:16:16;48.90;;;21.92;;
6663;SDS011;58749;48.022;10.922;2022-12-10T01:18:46;52.78;;;22.73;;
6663;SDS011;58749;48.022;10.922;2022-12-10T01:21:16;52.40;;;23.75;;
6663;SDS011;58749;48.022;10.922;2022-12-10T01:23:46;57.37;;;21.80;;
6663;SDS011;58749;48.022;10.922;2022-12-10T01:26:16;51.90;;;23.05;;
6663;SDS011;58749;48.022;10.922;2022-12-10T01:28:46;52.90;;;23.52;;
6663;SDS011;58749;48.022;10.922;2022-12-10T01:31:15;55.08;;;22.55;;
6663;SDS011;58749;48.022;10.922;2022-12-10T01:33:45;53.17;;;22.42;;
6663;SDS011;58749;48.022;10.922;2022-12-10T01:36:14;57.53;;;23.67;;
6663;SDS011;58749;48.022;10.922;2022-12-10T01:38:44;61.70;;;24.73;;
6663;SDS011;58749;48.022;10.922;2022-12-10T01:41:15;57.63;;;24.33;;
6663;SDS011;58749;48.022;10.922;2022-12-10T01:43:52;51.83;;;23.83;;
6663;SDS011;58749;48.022;10.922;2022-12-10T01:46:22;55.10;;;23.63;;
6663;SDS011;58749;48.022;10.922;2022-12-10T01:48:52;62.55;;;26.90;;
6663;SDS011;58749;48.022;10.922;2022-12-10T01:51:22;55.05;;;24.50;;
6663;SDS011;58749;48.022;10.922;2022-12-10T01:53:52;54.60;;;23.67;;
6663;SDS011;58749;48.022;10.922;2022-12-10T01:56:21;60.90;;;25.05;;
6663;SDS011;58749;48.022;10.922;2022-12-10T01:58:50;60.70;;;25.17;;
6663;SDS011;58749;48.022;10.922;2022-12-10T02:01:22;60.70;;;24.50;;
6663;SDS011;58749;48.022;10.922;2022-12-10T02:03:57;60.03;;;24.83;;
6663;SDS011;58749;48.022;10.922;2022-12-10T02:06:39;61.38;;;25.02;;
6663;SDS011;58749;48.022;10.922;2022-12-10T02:09:18;68.35;;;27.15;;
6663;SDS011;58749;48.022;10.922;2022-12-10T02:11:53;58.95;;;25.42;;
6663;SDS011;58749;48.022;10.922;2022-12-10T02:14:30;58.95;;;25.15;;
6663;SDS011;58749;48.022;10.922;2022-12-10T02:17:05;55.08;;;23.15;;
6663;SDS011;58749;48.022;10.922;2022-12-10T02:19:50;56.90;;;23.67;;
6663;SDS011;58749;48.022;10.922;2022-12-10T02:22:35;56.38;;;23.65;;
6663;SDS011;58749;48.022;10.922;2022-12-10T02:25:09;56.88;;;22.27;;
6663;SDS011;58749;48.022;10.922;2022-12-10T02:27:42;59.88;;;24.80;;
6663;SDS011;58749;48.022;10.922;2022-12-10T02:30:16;50.60;;;23.52;;
6663;SDS011;58749;48.022;10.922;2022-12-10T02:32:45;57.00;;;23.80;;
6663;SDS011;58749;48.022;10.922;2022-12-10T02:35:16;52.47;;;23.88;;
6663;SDS011;58749;48.022;10.922;2022-12-10T02:40:19;49.80;;;21.63;;
6663;SDS011;58749;48.022;10.922;2022-12-10T02:42:50;48.88;;;21.30;;
6663;SDS011;58749;48.022;10.922;2022-12-10T02:45:21;47.88;;;21.02;;
6663;SDS011;58749;48.022;10.922;2022-12-10T02:47:52;43.35;;;20.77;;
6663;SDS011;58749;48.022;10.922;2022-12-10T02:50:23;46.50;;;20.70;;
6663;SDS011;58749;48.022;10.922;2022-12-10T02:52:51;43.85;;;20.77;;
6663;SDS011;58749;48.022;10.922;2022-12-10T02:55:19;43.92;;;21.60;;
6663;SDS011;58749;48.022;10.922;2022-12-10T02:57:50;45.13;;;21.30;;
6663;SDS011;58749;48.022;10.922;2022-12-10T03:00:27;38.80;;;19.70;;
6663;SDS011;58749;48.022;10.922;2022-12-10T03:03:05;43.40;;;19.95;;
6663;SDS011;58749;48.022;10.922;2022-12-10T03:05:50;42.38;;;20.13;;
6663;SDS011;58749;48.022;10.922;2022-12-10T03:08:26;45.30;;;20.02;;
6663;SDS011;58749;48.022;10.922;2022-12-10T03:11:01;40.15;;;19.73;;
6663;SDS011;58749;48.022;10.922;2022-12-10T03:13:37;41.30;;;20.27;;
6663;SDS011;58749;48.022;10.922;2022-12-10T03:16:12;41.13;;;19.70;;
6663;SDS011;58749;48.022;10.922;2022-12-10T03:18:41;46.22;;;21.35;;
6663;SDS011;58749;48.022;10.922;2022-12-10T03:21:12;40.35;;;18.90;;
6663;SDS011;58749;48.022;10.922;2022-12-10T03:23:43;39.78;;;19.80;;
6663;SDS011;58749;48.022;10.922;2022-12-10T03:26:13;41.10;;;19.38;;
6663;SDS011;58749;48.022;10.922;2022-12-10T03:28:45;41.08;;;19.05;;
6663;SDS011;58749;48.022;10.922;2022-12-10T03:31:18;40.45;;;20.48;;
6663;SDS011;58749;48.022;10.922;2022-12-10T03:33:47;42.92;;;21.33;;
6663;SDS011;58749;48.022;10.922;2022-12-10T03:36:16;37.17;;;18.52;;
6663;SDS011;58749;48.022;10.922;2022-12-10T03:38:46;41.75;;;20.20;;
6663;SDS011;58749;48.022;10.922;2022-12-10T03:41:14;40.17;;;19.13;;
6663;SDS011;58749;48.022;10.922;2022-12-10T03:43:52;41.22;;;20.90;;
6663;SDS011;58749;48.022;10.922;2022-12-10T03:46:22;37.67;;;19.33;;
6663;SDS011;58749;48.022;10.922;2022-12-10T03:48:52;42.38;;;20.73;;
6663;SDS011;58749;48.022;10.922;2022-12-10T03:51:20;40.75;;;20.70;;
6663;SDS011;58749;48.022;10.922;2022-12-10T03:53:49;37.53;;;19.52;;
6663;SDS011;58749;48.022;10.922;2022-12-10T03:56:18;44.63;;;20.98;;
6663;SDS011;58749;48.022;10.922;2022-12-10T03:58:47;42.92;;;20.77;;
6663;SDS011;58749;48.022;10.922;2022-12-10T04:01:15;38.47;;;18.85;;
6663;SDS011;58749;48.022;10.922;2022-12-10T04:03:45;40.63;;;19.83;;
6663;SDS011;58749;48.022;10.922;2022-12-10T04:06:14;38.50;;;19.42;;
6663;SDS011;58749;48.022;10.922;2022-12-10T04:08:43;42.97;;;20.90;;
6663;SDS011;58749;48.022;10.922;2022-12-10T04:11:12;44.90;;;20.27;;
6663;SDS011;58749;48.022;10.922;2022-12-10T04:13:41;39.83;;;19.80;;
6663;SDS011;58749;48.022;10.922;2022-12-10T04:16:29;40.90;;;18.63;;
6663;SDS011;58749;48.022;10.922;2022-12-10T04:19:02;36.03;;;18.60;;
6663;SDS011;58749;48.022;10.922;2022-12-10T04:21:31;38.07;;;17.27;;
6663;SDS011;58749;48.022;10.922;2022-12-10T04:24:19;38.00;;;17.63;;
6663;SDS011;58749;48.022;10.922;2022-12-10T04:27:07;33.47;;;16.35;;
6663;SDS011;58749;48.022;10.922;2022-12-10T04:29:38;34.28;;;17.10;;
6663;SDS011;58749;48.022;10.922;2022-12-10T04:32:06;33.08;;;17.08;;
6663;SDS011;58749;48.022;10.922;2022-12-10T04:34:35;38.47;;;18.15;;
6663;SDS011;58749;48.022;10.922;2022-12-10T04:37:04;36.47;;;18.73;;
6663;SDS011;58749;48.022;10.922;2022-12-10T04:39:32;39.08;;;18.10;;
6663;SDS011;58749;48.022;10.922;2022-12-10T04:42:01;35.97;;;17.60;;
6663;SDS011;58749;48.022;10.922;2022-12-10T04:44:29;37.38;;;17.55;;
6663;SDS011;58749;48.022;10.922;2022-12-10T04:46:57;38.85;;;19.13;;
6663;SDS011;58749;48.022;10.922;2022-12-10T04:49:25;32.95;;;16.75;;
6663;SDS011;58749;48.022;10.922;2022-12-10T04:51:55;36.20;;;17.92;;
6663;SDS011;58749;48.022;10.922;2022-12-10T04:54:23;35.35;;;17.38;;
6663;SDS011;58749;48.022;10.922;2022-12-10T04:56:51;37.03;;;17.92;;
6663;SDS011;58749;48.022;10.922;2022-12-10T04:59:19;34.60;;;16.58;;
6663;SDS011;58749;48.022;10.922;2022-12-10T05:01:47;32.70;;;17.58;;
6663;SDS011;58749;48.022;10.922;2022-12-10T05:04:16;32.42;;;16.13;;
6663;SDS011;58749;48.022;10.922;2022-12-10T05:06:47;35.13;;;17.52;;
6663;SDS011;58749;48.022;10.922;2022-12-10T05:09:17;35.92;;;17.10;;
6663;SDS011;58749;48.022;10.922;2022-12-10T05:11:45;36.08;;;17.90;;
6663;SDS011;58749;48.022;10.922;2022-12-10T05:14:14;33.33;;;17.75;;
6663;SDS011;58749;48.022;10.922;2022-12-10T05:16:42;33.75;;;16.77;;
6663;SDS011;58749;48.022;10.922;2022-12-10T05:19:11;34.15;;;15.98;;
6663;SDS011;58749;48.022;10.922;2022-12-10T05:21:39;34.05;;;16.75;;
6663;SDS011;58749;48.022;10.922;2022-12-10T05:24:26;37.70;;;17.48;;
6663;SDS011;58749;48.022;10.922;2022-12-10T05:26:54;31.90;;;16.77;;
6663;SDS011;58749;48.022;10.922;2022-12-10T05:29:24;35.22;;;16.40;;
6663;SDS011;58749;48.022;10.922;2022-12-10T05:31:52;33.38;;;17.48;;
6663;SDS011;58749;48.022;10.922;2022-12-10T05:34:20;32.22;;;16.10;;
6663;SDS011;58749;48.022;10.922;2022-12-10T05:36:48;31.67;;;15.98;;
6663;SDS011;58749;48.022;10.922;2022-12-10T05:39:16;28.75;;;15.43;;
6663;SDS011;58749;48.022;10.922;2022-12-10T05:41:45;30.33;;;16.27;;
6663;SDS011;58749;48.022;10.922;2022-12-10T05:44:13;32.55;;;17.40;;
6663;SDS011;58749;48.022;10.922;2022-12-10T05:46:41;31.95;;;17.85;;
6663;SDS011;58749;48.022;10.922;2022-12-10T05:49:09;29.27;;;14.95;;
6663;SDS011;58749;48.022;10.922;2022-12-10T05:51:37;28.80;;;15.77;;
6663;SDS011;58749;48.022;10.922;2022-12-10T05:54:06;29.75;;;15.63;;
6663;SDS011;58749;48.022;10.922;2022-12-10T05:56:35;29.67;;;15.93;;
6663;SDS011;58749;48.022;10.922;2022-12-10T05:59:05;32.70;;;16.75;;
6663;SDS011;58749;48.022;10.922;2022-12-10T06:01:41;29.55;;;15.18;;
6663;SDS011;58749;48.022;10.922;2022-12-10T06:04:10;32.17;;;15.75;;
6663;SDS011;58749;48.022;10.922;2022-12-10T06:06:38;28.92;;;14.52;;
6663;SDS011;58749;48.022;10.922;2022-12-10T06:09:07;32.20;;;16.05;;
6663;SDS011;58749;48.022;10.922;2022-12-10T06:11:39;24.15;;;11.70;;
6663;SDS011;58749;48.022;10.922;2022-12-10T06:14:09;29.38;;;15.98;;
6663;SDS011;58749;48.022;10.922;2022-12-10T06:16:38;32.45;;;17.83;;
6663;SDS011;58749;48.022;10.922;2022-12-10T06:19:06;33.30;;;18.33;;
6663;SDS011;58749;48.022;10.922;2022-12-10T06:21:34;32.15;;;16.60;;
6663;SDS011;58749;48.022;10.922;2022-12-10T06:24:02;30.88;;;15.77;;
6663;SDS011;58749;48.022;10.922;2022-12-10T06:26:30;27.58;;;15.60;;
6663;SDS011;58749;48.022;10.922;2022-12-10T06:28:58;32.40;;;15.82;;
6663;SDS011;58749;48.022;10.922;2022-12-10T06:31:28;31.13;;;16.45;;
6663;SDS011;58749;48.022;10.922;2022-12-10T06:33:57;31.13;;;16.48;;
6663;SDS011;58749;48.022;10.922;2022-12-10T06:36:25;29.58;;;15.88;;
6663;SDS011;58749;48.022;10.922;2022-12-10T06:38:52;30.83;;;15.35;;
6663;SDS011;58749;48.022;10.922;2022-12-10T06:41:20;33.38;;;17.65;;
6663;SDS011;58749;48.022;10.922;2022-12-10T06:43:48;32.33;;;16.13;;
6663;SDS011;58749;48.022;10.922;2022-12-10T06:46:17;31.65;;;15.93;;
6663;SDS011;58749;48.022;10.922;2022-12-10T06:48:48;32.08;;;16.38;;
6663;SDS011;58749;48.022;10.922;2022-12-10T06:51:16;31.77;;;16.90;;
6663;SDS011;58749;48.022;10.922;2022-12-10T06:53:45;37.13;;;18.77;;
6663;SDS011;58749;48.022;10.922;2022-12-10T06:56:15;34.95;;;16.88;;
6663;SDS011;58749;48.022;10.922;2022-12-10T06:58:45;41.25;;;18.45;;
6663;SDS011;58749;48.022;10.922;2022-12-10T07:01:15;38.70;;;18.70;;
6663;SDS011;58749;48.022;10.922;2022-12-10T07:03:48;34.70;;;17.35;;
6663;SDS011;58749;48.022;10.922;2022-12-10T07:06:18;43.30;;;20.08;;
6663;SDS011;58749;48.022;10.922;2022-12-10T07:08:47;45.78;;;22.00;;
6663;SDS011;58749;48.022;10.922;2022-12-10T07:11:17;43.97;;;20.77;;
6663;SDS011;58749;48.022;10.922;2022-12-10T07:13:48;37.70;;;17.88;;
6663;SDS011;58749;48.022;10.922;2022-12-10T07:16:17;41.88;;;18.75;;
6663;SDS011;58749;48.022;10.922;2022-12-10T07:18:49;49.05;;;21.05;;
6663;SDS011;58749;48.022;10.922;2022-12-10T07:21:19;52.10;;;20.05;;
6663;SDS011;58749;48.022;10.922;2022-12-10T07:23:48;50.00;;;19.50;;
6663;SDS011;58749;48.022;10.922;2022-12-10T07:26:16;54.33;;;21.58;;
6663;SDS011;58749;48.022;10.922;2022-12-10T07:28:44;48.65;;;20.73;;
6663;SDS011;58749;48.022;10.922;2022-12-10T07:31:19;56.58;;;22.92;;
6663;SDS011;58749;48.022;10.922;2022-12-10T07:33:50;51.90;;;23.65;;
6663;SDS011;58749;48.022;10.922;2022-12-10T07:36:20;52.78;;;21.85;;
6663;SDS011;58749;48.022;10.922;2022-12-10T07:38:51;55.85;;;22.45;;
6663;SDS011;58749;48.022;10.922;2022-12-10T07:41:19;56.88;;;20.20;;
6663;SDS011;58749;48.022;10.922;2022-12-10T07:43:48;60.03;;;22.25;;
6663;SDS011;58749;48.022;10.922;2022-12-10T07:46:17;84.13;;;23.95;;
6663;SDS011;58749;48.022;10.922;2022-12-10T07:48:47;180.68;;;25.70;;
6663;SDS011;58749;48.022;10.922;2022-12-10T07:51:18;239.57;;;27.63;;
6663;SDS011;58749;48.022;10.922;2022-12-10T07:53:48;209.05;;;29.88;;
6663;SDS011;58749;48.022;10.922;2022-12-10T07:56:18;189.93;;;24.73;;
6663;SDS011;58749;48.022;10.922;2022-12-10T07:58:47;107.95;;;26.17;;
6663;SDS011;58749;48.022;10.922;2022-12-10T08:01:17;85.60;;;23.70;;
6663;SDS011;58749;48.022;10.922;2022-12-10T08:03:48;158.75;;;25.13;;
6663;SDS011;58749;48.022;10.922;2022-12-10T08:06:19;68.07;;;23.95;;
6663;SDS011;58749;48.022;10.922;2022-12-10T08:08:48;92.15;;;24.75;;
6663;SDS011;58749;48.022;10.922;2022-12-10T08:11:18;132.20;;;27.35;;
6663;SDS011;58749;48.022;10.922;2022-12-10T08:13:47;69.82;;;24.45;;
6663;SDS011;58749;48.022;10.922;2022-12-10T08:16:22;69.57;;;25.00;;
6663;SDS011;58749;48.022;10.922;2022-12-10T08:18:53;76.65;;;23.65;;
6663;SDS011;58749;48.022;10.922;2022-12-10T08:21:24;80.53;;;24.33;;
6663;SDS011;58749;48.022;10.922;2022-12-10T08:23:53;73.45;;;25.83;;
6663;SDS011;58749;48.022;10.922;2022-12-10T08:26:22;98.60;;;24.63;;
6663;SDS011;58749;48.022;10.922;2022-12-10T08:28:54;152.20;;;27.23;;
6663;SDS011;58749;48.022;10.922;2022-12-10T08:31:23;78.95;;;24.23;;
6663;SDS011;58749;48.022;10.922;2022-12-10T08:33:53;110.13;;;26.27;;
6663;SDS011;58749;48.022;10.922;2022-12-10T08:36:21;78.40;;;25.17;;
6663;SDS011;58749;48.022;10.922;2022-12-10T08:38:51;69.85;;;24.50;;
6663;SDS011;58749;48.022;10.922;2022-12-10T08:41:19;74.50;;;26.75;;
6663;SDS011;58749;48.022;10.922;2022-12-10T08:43:48;58.17;;;21.70;;
6663;SDS011;58749;48.022;10.922;2022-12-10T08:46:19;58.72;;;21.25;;
6663;SDS011;58749;48.022;10.922;2022-12-10T08:48:47;64.95;;;23.98;;
6663;SDS011;58749;48.022;10.922;2022-12-10T08:51:16;73.15;;;23.90;;
6663;SDS011;58749;48.022;10.922;2022-12-10T08:53:46;68.88;;;24.67;;
6663;SDS011;58749;48.022;10.922;2022-12-10T08:56:15;79.22;;;25.27;;
6663;SDS011;58749;48.022;10.922;2022-12-10T08:58:43;66.15;;;23.95;;
6663;SDS011;58749;48.022;10.922;2022-12-10T09:01:12;67.18;;;21.77;;
6663;SDS011;58749;48.022;10.922;2022-12-10T09:03:41;73.07;;;23.50;;
6663;SDS011;58749;48.022;10.922;2022-12-10T09:06:12;68.60;;;23.88;;
6663;SDS011;58749;48.022;10.922;2022-12-10T09:08:41;70.97;;;24.15;;
6663;SDS011;58749;48.022;10.922;2022-12-10T09:11:12;73.68;;;26.10;;
6663;SDS011;58749;48.022;10.922;2022-12-10T09:13:42;75.80;;;24.95;;
6663;SDS011;58749;48.022;10.922;2022-12-10T09:16:10;74.75;;;25.10;;
6663;SDS011;58749;48.022;10.922;2022-12-10T09:18:39;70.32;;;26.33;;
6663;SDS011;58749;48.022;10.922;2022-12-10T09:21:07;70.97;;;24.63;;
6663;SDS011;58749;48.022;10.922;2022-12-10T09:23:38;74.18;;;25.27;;
6663;SDS011;58749;48.022;10.922;2022-12-10T09:26:07;73.40;;;25.60;;
6663;SDS011;58749;48.022;10.922;2022-12-10T09:28:37;73.47;;;24.52;;
6663;SDS011;58749;48.022;10.922;2022-12-10T09:31:06;76.63;;;26.75;;
6663;SDS011;58749;48.022;10.922;2022-12-10T09:33:46;66.85;;;25.55;;
6663;SDS011;58749;48.022;10.922;2022-12-10T09:36:16;62.33;;;22.77;;
6663;SDS011;58749;48.022;10.922;2022-12-10T09:38:44;79.40;;;26.33;;
6663;SDS011;58749;48.022;10.922;2022-12-10T09:41:20;65.47;;;24.60;;
6663;SDS011;58749;48.022;10.922;2022-12-10T09:44:17;73.13;;;25.95;;
6663;SDS011;58749;48.022;10.922;2022-12-10T09:46:59;74.70;;;24.83;;
6663;SDS011;58749;48.022;10.922;2022-12-10T09:49:32;67.07;;;24.67;;
6663;SDS011;58749;48.022;10.922;2022-12-10T09:52:06;71.57;;;25.15;;
6663;SDS011;58749;48.022;10.922;2022-12-10T09:54:40;72.78;;;24.83;;
6663;SDS011;58749;48.022;10.922;2022-12-10T09:57:13;73.00;;;27.35;;
6663;SDS011;58749;48.022;10.922;2022-12-10T09:59:49;71.95;;;27.48;;
6663;SDS011;58749;48.022;10.922;2022-12-10T10:02:22;70.15;;;26.48;;
6663;SDS011;58749;48.022;10.922;2022-12-10T10:05:06;64.45;;;25.00;;
6663;SDS011;58749;48.022;10.922;2022-12-10T10:07:41;58.35;;;22.77;;
6663;SDS011;58749;48.022;10.922;2022-12-10T10:10:17;58.08;;;23.75;;
6663;SDS011;58749;48.022;10.922;2022-12-10T10:12:50;60.38;;;23.63;;
6663;SDS011;58749;48.022;10.922;2022-12-10T10:15:24;59.42;;;24.10;;
6663;SDS011;58749;48.022;10.922;2022-12-10T10:17:58;59.05;;;24.65;;
6663;SDS011;58749;48.022;10.922;2022-12-10T10:20:30;58.30;;;26.00;;
6663;SDS011;58749;48.022;10.922;2022-12-10T10:22:59;61.70;;;26.33;;
6663;SDS011;58749;48.022;10.922;2022-12-10T10:25:27;61.25;;;24.88;;
6663;SDS011;58749;48.022;10.922;2022-12-10T10:27:56;60.60;;;24.17;;
6663;SDS011;58749;48.022;10.922;2022-12-10T10:30:25;49.65;;;23.15;;
6663;SDS011;58749;48.022;10.922;2022-12-10T10:32:56;53.65;;;23.58;;
6663;SDS011;58749;48.022;10.922;2022-12-10T10:35:26;49.80;;;21.83;;
6663;SDS011;58749;48.022;10.922;2022-12-10T10:37:56;50.17;;;22.48;;
6663;SDS011;58749;48.022;10.922;2022-12-10T10:40:28;52.42;;;22.55;;
6663;SDS011;58749;48.022;10.922;2022-12-10T10:42:59;56.80;;;24.83;;
6663;SDS011;58749;48.022;10.922;2022-12-10T10:45:32;50.97;;;24.42;;
6663;SDS011;58749;48.022;10.922;2022-12-10T10:48:03;55.97;;;23.58;;
6663;SDS011;58749;48.022;10.922;2022-12-10T10:50:36;50.30;;;23.73;;
6663;SDS011;58749;48.022;10.922;2022-12-10T10:55:51;48.78;;;21.65;;
6663;SDS011;58749;48.022;10.922;2022-12-10T10:58:23;58.47;;;24.80;;
6663;SDS011;58749;48.022;10.922;2022-12-10T11:00:55;50.88;;;22.95;;
6663;SDS011;58749;48.022;10.922;2022-12-10T11:03:25;59.50;;;24.08;;
6663;SDS011;58749;48.022;10.922;2022-12-10T11:05:55;60.15;;;25.73;;
6663;SDS011;58749;48.022;10.922;2022-12-10T11:08:25;56.30;;;23.50;;
6663;SDS011;58749;48.022;10.922;2022-12-10T11:10:57;59.00;;;25.35;;
6663;SDS011;58749;48.022;10.922;2022-12-10T11:13:29;53.45;;;24.45;;
6663;SDS011;58749;48.022;10.922;2022-12-10T11:16:02;54.88;;;24.08;;
6663;SDS011;58749;48.022;10.922;2022-12-10T11:18:39;53.05;;;22.80;;
6663;SDS011;58749;48.022;10.922;2022-12-10T11:21:15;58.55;;;23.88;;
6663;SDS011;58749;48.022;10.922;2022-12-10T11:23:46;57.25;;;25.00;;
6663;SDS011;58749;48.022;10.922;2022-12-10T11:26:21;50.28;;;24.17;;
6663;SDS011;58749;48.022;10.922;2022-12-10T11:29:02;56.13;;;25.15;;
6663;SDS011;58749;48.022;10.922;2022-12-10T11:31:42;58.88;;;26.05;;
6663;SDS011;58749;48.022;10.922;2022-12-10T11:34:29;51.05;;;23.65;;
6663;SDS011;58749;48.022;10.922;2022-12-10T11:37:03;43.20;;;21.23;;
6663;SDS011;58749;48.022;10.922;2022-12-10T11:39:46;45.33;;;20.85;;
6663;SDS011;58749;48.022;10.922;2022-12-10T11:42:41;51.42;;;21.08;;
6663;SDS011;58749;48.022;10.922;2022-12-10T11:45:18;42.60;;;20.35;;
6663;SDS011;58749;48.022;10.922;2022-12-10T11:47:56;43.78;;;21.50;;
6663;SDS011;58749;48.022;10.922;2022-12-10T11:50:34;43.97;;;20.95;;
6663;SDS011;58749;48.022;10.922;2022-12-10T11:56:06;45.38;;;20.67;;
6663;SDS011;58749;48.022;10.922;2022-12-10T11:58:48;43.83;;;21.80;;
6663;SDS011;58749;48.022;10.922;2022-12-10T12:01:57;48.10;;;22.17;;
6663;SDS011;58749;48.022;10.922;2022-12-10T12:04:40;59.47;;;24.67;;
6663;SDS011;58749;48.022;10.922;2022-12-10T12:07:36;52.65;;;25.15;;
6663;SDS011;58749;48.022;10.922;2022-12-10T12:13:20;51.30;;;24.38;;
6663;SDS011;58749;48.022;10.922;2022-12-10T12:15:53;49.65;;;25.33;;
6663;SDS011;58749;48.022;10.922;2022-12-10T12:18:26;50.08;;;24.73;;
6663;SDS011;58749;48.022;10.922;2022-12-10T12:21:05;49.38;;;24.58;;
6663;SDS011;58749;48.022;10.922;2022-12-10T12:23:38;53.08;;;24.67;;
6663;SDS011;58749;48.022;10.922;2022-12-10T12:26:12;49.78;;;25.08;;
6663;SDS011;58749;48.022;10.922;2022-12-10T12:28:43;57.42;;;26.10;;
6663;SDS011;58749;48.022;10.922;2022-12-10T12:31:17;47.95;;;24.40;;
6663;SDS011;58749;48.022;10.922;2022-12-10T12:33:49;45.83;;;24.10;;
6663;SDS011;58749;48.022;10.922;2022-12-10T12:36:24;49.20;;;24.13;;
6663;SDS011;58749;48.022;10.922;2022-12-10T12:38:56;53.55;;;25.98;;
6663;SDS011;58749;48.022;10.922;2022-12-10T12:41:31;52.35;;;26.00;;
6663;SDS011;58749;48.022;10.922;2022-12-10T12:44:07;48.05;;;25.38;;
6663;SDS011;58749;48.022;10.922;2022-12-10T12:46:42;47.85;;;24.23;;
6663;SDS011;58749;48.022;10.922;2022-12-10T12:49:13;55.53;;;26.25;;
6663;SDS011;58749;48.022;10.922;2022-12-10T12:51:50;46.15;;;23.45;;
6663;SDS011;58749;48.022;10.922;2022-12-10T12:54:21;44.50;;;21.90;;
6663;SDS011;58749;48.022;10.922;2022-12-10T12:56:53;47.67;;;24.30;;
6663;SDS011;58749;48.022;10.922;2022-12-10T12:59:39;48.28;;;23.58;;
6663;SDS011;58749;48.022;10.922;2022-12-10T13:02:22;44.70;;;23.02;;
6663;SDS011;58749;48.022;10.922;2022-12-10T13:05:01;52.28;;;26.02;;
6663;SDS011;58749;48.022;10.922;2022-12-10T13:07:34;48.95;;;24.45;;
6663;SDS011;58749;48.022;10.922;2022-12-10T13:12:52;42.35;;;23.05;;
6663;SDS011;58749;48.022;10.922;2022-12-10T13:15:35;48.53;;;24.20;;
6663;SDS011;58749;48.022;10.922;2022-12-10T13:24:06;34.45;;;17.98;;
6663;SDS011;58749;48.022;10.922;2022-12-10T13:26:40;49.40;;;24.98;;
6663;SDS011;58749;48.022;10.922;2022-12-10T13:29:28;44.50;;;23.00;;
6663;SDS011;58749;48.022;10.922;2022-12-10T13:32:13;42.58;;;22.77;;
6663;SDS011;58749;48.022;10.922;2022-12-10T13:34:43;50.63;;;25.25;;
6663;SDS011;58749;48.022;10.922;2022-12-10T13:37:16;44.88;;;22.90;;
6663;SDS011;58749;48.022;10.922;2022-12-10T13:39:59;37.00;;;20.80;;
6663;SDS011;58749;48.022;10.922;2022-12-10T13:42:32;39.58;;;20.30;;
6663;SDS011;58749;48.022;10.922;2022-12-10T13:45:32;35.40;;;19.05;;
6663;SDS011;58749;48.022;10.922;2022-12-10T13:51:10;34.75;;;17.75;;
6663;SDS011;58749;48.022;10.922;2022-12-10T13:53:51;40.63;;;18.92;;
6663;SDS011;58749;48.022;10.922;2022-12-10T13:56:32;36.83;;;18.73;;
6663;SDS011;58749;48.022;10.922;2022-12-10T13:59:16;34.88;;;19.55;;
6663;SDS011;58749;48.022;10.922;2022-12-10T14:01:55;37.33;;;19.08;;
6663;SDS011;58749;48.022;10.922;2022-12-10T14:04:38;36.80;;;20.05;;
6663;SDS011;58749;48.022;10.922;2022-12-10T14:07:23;37.90;;;19.77;;
6663;SDS011;58749;48.022;10.922;2022-12-10T14:09:55;42.95;;;20.23;;
6663;SDS011;58749;48.022;10.922;2022-12-10T14:12:26;41.13;;;20.40;;
6663;SDS011;58749;48.022;10.922;2022-12-10T14:14:59;38.38;;;19.50;;
6663;SDS011;58749;48.022;10.922;2022-12-10T14:20:00;33.72;;;19.05;;
6663;SDS011;58749;48.022;10.922;2022-12-10T14:22:33;42.30;;;19.05;;
6663;SDS011;58749;48.022;10.922;2022-12-10T14:25:05;37.78;;;19.45;;
6663;SDS011;58749;48.022;10.922;2022-12-10T14:27:40;38.03;;;17.95;;
6663;SDS011;58749;48.022;10.922;2022-12-10T14:30:14;35.15;;;18.05;;
6663;SDS011;58749;48.022;10.922;2022-12-10T14:32:44;35.53;;;17.90;;
6663;SDS011;58749;48.022;10.922;2022-12-10T14:35:15;39.55;;;20.13;;
6663;SDS011;58749;48.022;10.922;2022-12-10T14:37:52;36.67;;;18.77;;
6663;SDS011;58749;48.022;10.922;2022-12-10T14:40:22;33.75;;;18.00;;
6663;SDS011;58749;48.022;10.922;2022-12-10T14:42:55;27.00;;;15.10;;
6663;SDS011;58749;48.022;10.922;2022-12-10T14:45:30;34.90;;;16.55;;
6663;SDS011;58749;48.022;10.922;2022-12-10T14:48:05;33.55;;;17.40;;
6663;SDS011;58749;48.022;10.922;2022-12-10T14:50:35;33.17;;;17.25;;
6663;SDS011;58749;48.022;10.922;2022-12-10T14:53:08;33.13;;;16.35;;
6663;SDS011;58749;48.022;10.922;2022-12-10T14:55:40;35.88;;;18.30;;
6663;SDS011;58749;48.022;10.922;2022-12-10T14:58:13;35.33;;;17.40;;
6663;SDS011;58749;48.022;10.922;2022-12-10T15:00:45;37.17;;;17.45;;
6663;SDS011;58749;48.022;10.922;2022-12-10T15:03:16;33.90;;;17.27;;
6663;SDS011;58749;48.022;10.922;2022-12-10T15:05:54;33.53;;;15.70;;
6663;SDS011;58749;48.022;10.922;2022-12-10T15:08:24;33.60;;;17.10;;
6663;SDS011;58749;48.022;10.922;2022-12-10T15:10:54;32.15;;;17.05;;
6663;SDS011;58749;48.022;10.922;2022-12-10T15:13:27;33.72;;;16.25;;
6663;SDS011;58749;48.022;10.922;2022-12-10T15:16:00;30.35;;;16.00;;